Sandwich, MA (02563)

12:28 PM EST on February 28, 2015 (GMT -0500)
4700 greenway | Change Station
CLOSE
Current Station
Personal Weather Station
Location: Massachusetts, MA
Elevation: 177 ft
Nearby Weather Stations

Elev 177 ft 41.71 °N, 70.50 °W | Updated 8 seconds ago

Clear
Clear
28.6 °F
Feels Like 23 °F
N
4.9
Wind Variable Wind from West
Gusts 4.9 mph

Today
High -- | Low -- °F
--% Chance of Precip.
Yesterday
High -- | Low -- °F
Precip. -- in
6:18 AM 5:30 PM
Waxing Gibbous, 79% visible
Pressure 30.73 in
Visibility 10.0 miles
Clouds Clear
Windchill 23 °F
Dew Point 4 °F
Humidity 35%
Rainfall 0.00 in
Snow Depth Not available.
UV 5 out of 12
Pollen .40 out of 12
Air Quality Not available.
Flu Activity Not available.
METAR KFMH 281715Z AUTO 28004KT 10SM CLR M04/M19 A3073 RMK AO2 FZRANO

More Conditions Fewer Conditions

Pressure 30.73 in
Visibility 10.0 miles
Clouds Clear
Windchill 23 °F
Dew Point 4 °F
Humidity 35%
Rainfall 0.00 in
Snow Depth Not available.
UV 5 out of 12
Pollen .40 out of 12
Air Quality Not available.
Flu Activity Not available.
METAR KFMH 281715Z AUTO 28004KT 10SM CLR M04/M19 A3073 RMK AO2 FZRANO

More Conditions Fewer Conditions

10-Day Weather Forecast

Almanac

Astronomy

Feb. 28, 2015 Rise Set
Actual Time
Civil Twilight
Nautical Twilight
Astronomical Twilight
Moon
Length of Visible Light
Length of Day
Tomorrow will be .
, % of the Moon is Illuminated

Today's Extremes

State Highs State Lows

Community

WunderPhotos

Upload Photos

1,801,101 photos uploaded!

WunderBlogs® & News

Nearby

Air Quality

  Air Quality AQ Index Pollutant
Not available.

Snow Depth

Station Depth Elevation

Earthquake Activity

City Distance Mag. Time & Date
Minimum magnitude displayed is 2.5.

Coastal Water Temperatures

Place Temperature

Nearby Weather Stations